createdAt,value
2023-03-21T00:01:55.202Z,30.00
2023-03-21T00:04:24.993Z,30.23
2023-03-21T00:06:52.748Z,28.25
2023-03-21T00:09:20.773Z,26.38
2023-03-21T00:11:48.446Z,28.17
2023-03-21T00:14:19.009Z,25.98
2023-03-21T00:16:54.530Z,27.17
2023-03-21T00:19:21.453Z,25.27
2023-03-21T00:22:07.614Z,25.35
2023-03-21T00:24:47.059Z,21.42
2023-03-21T00:27:39.803Z,20.77
2023-03-21T00:30:01.103Z,20.40
2023-03-21T00:32:28.314Z,20.88
2023-03-21T00:35:16.515Z,18.52
2023-03-21T00:37:43.220Z,17.83
2023-03-21T00:40:22.982Z,18.02
2023-03-21T00:42:52.675Z,18.10
2023-03-21T00:45:22.018Z,17.17
2023-03-21T00:47:49.435Z,17.33
2023-03-21T00:50:16.668Z,17.67
2023-03-21T00:52:44.241Z,17.20
2023-03-21T00:55:15.076Z,16.63
2023-03-21T00:57:45.263Z,17.30
2023-03-21T01:00:15.371Z,16.85
2023-03-21T01:03:08.517Z,15.88
2023-03-21T01:06:07.341Z,17.40
2023-03-21T01:11:30.163Z,17.60
2023-03-21T01:14:10.732Z,17.13
2023-03-21T01:16:48.709Z,17.55
2023-03-21T01:19:25.506Z,18.52
2023-03-21T01:21:56.724Z,17.77
2023-03-21T01:24:24.106Z,17.38
2023-03-21T01:26:51.096Z,19.02
2023-03-21T01:29:18.302Z,17.70
2023-03-21T01:31:45.334Z,19.65
2023-03-21T01:34:12.495Z,20.13
2023-03-21T01:36:39.518Z,18.92
2023-03-21T01:39:09.579Z,19.52
2023-03-21T01:41:44.170Z,18.67
2023-03-21T01:44:29.024Z,18.40
2023-03-21T01:47:12.772Z,23.35
2023-03-21T01:49:48.015Z,23.58
2023-03-21T01:52:33.413Z,24.67
2023-03-21T01:55:13.407Z,21.95
2023-03-21T01:58:03.975Z,20.85
2023-03-21T02:00:36.619Z,19.73
2023-03-21T02:03:15.221Z,20.45
2023-03-21T02:05:53.931Z,19.02
2023-03-21T02:08:25.891Z,19.00
2023-03-21T02:11:12.424Z,18.92
2023-03-21T02:13:39.225Z,16.88
2023-03-21T02:16:17.236Z,18.67
2023-03-21T02:18:50.456Z,17.10
2023-03-21T02:22:05.700Z,17.42
2023-03-21T02:24:48.929Z,16.73
2023-03-21T02:27:24.478Z,18.85
2023-03-21T02:30:30.495Z,19.48
2023-03-21T02:33:26.071Z,20.45
2023-03-21T02:36:16.390Z,21.95
2023-03-21T02:39:07.980Z,20.83
2023-03-21T02:41:52.403Z,20.40
2023-03-21T02:44:32.095Z,20.20
2023-03-21T02:47:06.817Z,20.20
2023-03-21T02:50:02.260Z,20.83
2023-03-21T02:52:39.110Z,19.77
2023-03-21T02:55:32.326Z,20.00
2023-03-21T02:58:11.698Z,19.67
2023-03-21T03:00:42.994Z,22.20
2023-03-21T03:03:12.710Z,20.95
2023-03-21T03:05:52.271Z,20.42
2023-03-21T03:08:52.913Z,19.65
2023-03-21T03:11:41.041Z,20.48
2023-03-21T03:14:56.376Z,20.30
2023-03-21T03:18:02.022Z,20.42
2023-03-21T03:21:10.771Z,22.27
2023-03-21T03:23:53.358Z,20.65
2023-03-21T03:26:54.408Z,24.40
2023-03-21T03:29:22.945Z,22.55
2023-03-21T03:32:25.650Z,22.15
2023-03-21T03:34:57.091Z,24.40
2023-03-21T03:37:37.434Z,24.13
2023-03-21T03:40:09.356Z,21.15
2023-03-21T03:42:40.914Z,23.77
2023-03-21T03:45:09.829Z,23.98
2023-03-21T03:47:42.045Z,25.00
2023-03-21T03:50:34.029Z,28.45
2023-03-21T03:53:40.788Z,25.50
2023-03-21T03:56:11.687Z,26.02
2023-03-21T03:58:45.825Z,25.90
2023-03-21T04:01:16.250Z,25.05
2023-03-21T04:03:56.407Z,26.88
2023-03-21T04:06:30.743Z,26.08
2023-03-21T04:09:01.511Z,26.08
2023-03-21T04:11:29.026Z,22.55
2023-03-21T04:13:55.993Z,25.25
2023-03-21T04:16:26.053Z,24.48
2023-03-21T04:18:52.967Z,24.50
2023-03-21T04:21:21.660Z,24.80
2023-03-21T04:23:48.552Z,25.42
2023-03-21T04:26:15.680Z,25.23
2023-03-21T04:28:42.558Z,25.08
2023-03-21T04:31:22.713Z,23.55
2023-03-21T04:34:01.643Z,24.70
2023-03-21T04:36:30.778Z,25.00
2023-03-21T04:39:04.810Z,27.17
2023-03-21T04:41:32.254Z,25.67
2023-03-21T04:43:59.114Z,25.83
2023-03-21T04:46:29.060Z,24.70
2023-03-21T04:48:55.856Z,25.88
2023-03-21T04:51:23.023Z,26.23
2023-03-21T04:53:52.584Z,25.73
2023-03-21T04:56:19.773Z,24.42
2023-03-21T04:58:46.646Z,25.35
2023-03-21T05:01:14.656Z,26.60
2023-03-21T05:03:41.708Z,24.90
2023-03-21T05:06:09.906Z,23.42
2023-03-21T05:08:36.912Z,23.27
2023-03-21T05:11:05.245Z,21.70
2023-03-21T05:13:32.150Z,24.13
2023-03-21T05:15:59.355Z,21.55
2023-03-21T05:18:26.700Z,21.15
2023-03-21T05:20:55.374Z,22.45
2023-03-21T05:23:23.239Z,23.77
2023-03-21T05:25:50.604Z,22.42
2023-03-21T05:28:18.320Z,21.85
2023-03-21T05:30:46.747Z,21.88
2023-03-21T05:33:14.183Z,22.02
2023-03-21T05:35:41.472Z,23.63
2023-03-21T05:38:08.361Z,23.75
2023-03-21T05:40:35.592Z,24.42
2023-03-21T05:43:02.431Z,27.48
2023-03-21T05:45:29.656Z,27.13
2023-03-21T05:47:56.541Z,27.00
2023-03-21T05:50:23.811Z,28.20
2023-03-21T05:52:50.871Z,27.38
2023-03-21T05:55:18.066Z,28.10
2023-03-21T05:57:44.937Z,28.75
2023-03-21T06:00:12.682Z,29.02
2023-03-21T06:02:40.085Z,33.92
2023-03-21T06:05:07.578Z,32.47
2023-03-21T06:07:35.609Z,28.38
2023-03-21T06:10:04.033Z,26.92
2023-03-21T06:12:31.055Z,21.63
2023-03-21T06:14:58.196Z,20.27
2023-03-21T06:17:25.335Z,25.35
2023-03-21T06:19:52.643Z,24.65
2023-03-21T06:22:19.525Z,23.13
2023-03-21T06:24:46.677Z,23.85
2023-03-21T06:27:13.507Z,21.88
2023-03-21T06:29:41.336Z,22.40
2023-03-21T06:32:08.264Z,23.13
2023-03-21T06:34:36.670Z,27.77
2023-03-21T06:37:04.314Z,24.38
2023-03-21T06:39:33.058Z,23.15
2023-03-21T06:42:00.993Z,22.17
2023-03-21T06:44:28.520Z,22.65
2023-03-21T06:46:55.523Z,22.77
2023-03-21T06:49:22.775Z,26.30
2023-03-21T06:51:49.668Z,22.75
2023-03-21T06:54:18.981Z,22.42
2023-03-21T06:56:55.068Z,21.05
2023-03-21T06:59:22.303Z,23.02
2023-03-21T07:01:49.365Z,22.05
2023-03-21T07:04:16.598Z,22.98
2023-03-21T07:06:43.746Z,21.60
2023-03-21T07:09:11.062Z,22.05
2023-03-21T07:11:38.411Z,22.17
2023-03-21T07:14:06.623Z,21.58
2023-03-21T07:16:33.692Z,22.13
2023-03-21T07:19:01.341Z,21.25
2023-03-21T07:21:28.353Z,22.77
2023-03-21T07:23:55.548Z,23.30
2023-03-21T07:26:22.915Z,22.08
2023-03-21T07:28:50.403Z,26.45
2023-03-21T07:31:17.683Z,25.50
2023-03-21T07:33:45.706Z,23.15
2023-03-21T07:36:22.210Z,22.80
2023-03-21T07:38:49.357Z,24.33
2023-03-21T07:43:48.299Z,23.30
2023-03-21T07:46:15.475Z,26.05
2023-03-21T07:48:42.738Z,22.52
2023-03-21T07:51:09.782Z,24.20
2023-03-21T07:53:37.037Z,25.20
2023-03-21T07:56:04.194Z,23.58
2023-03-21T07:58:31.362Z,22.80
2023-03-21T08:00:58.878Z,22.83
2023-03-21T08:03:29.279Z,23.67
2023-03-21T08:05:56.094Z,22.27
2023-03-21T08:08:23.250Z,21.35
2023-03-21T08:10:50.208Z,22.30
2023-03-21T08:13:17.416Z,24.23
2023-03-21T08:15:44.411Z,24.27
2023-03-21T08:18:11.955Z,24.15
2023-03-21T08:20:39.041Z,23.58
2023-03-21T08:23:06.147Z,21.23
2023-03-21T08:25:33.320Z,22.60
2023-03-21T08:28:00.809Z,21.42
2023-03-21T08:30:29.337Z,20.15
2023-03-21T08:33:00.823Z,23.40
2023-03-21T08:35:29.509Z,20.38
2023-03-21T08:37:57.646Z,18.80
2023-03-21T08:40:24.612Z,21.65
2023-03-21T08:42:51.831Z,20.00
2023-03-21T08:45:18.770Z,21.23
2023-03-21T08:47:47.110Z,20.98
2023-03-21T08:50:17.714Z,22.48
2023-03-21T08:52:44.885Z,22.70
2023-03-21T08:55:20.860Z,21.70
2023-03-21T08:57:48.011Z,28.75
2023-03-21T09:00:17.280Z,25.13
2023-03-21T09:02:46.939Z,22.02
2023-03-21T09:05:18.799Z,20.90
2023-03-21T09:07:46.332Z,20.92
2023-03-21T09:10:22.138Z,19.33
2023-03-21T09:12:51.725Z,21.48
2023-03-21T09:15:21.674Z,22.33
2023-03-21T09:17:50.350Z,19.83
2023-03-21T09:20:31.389Z,18.05
2023-03-21T09:23:01.887Z,20.55
2023-03-21T09:25:35.232Z,21.73
2023-03-21T09:28:05.234Z,16.85
2023-03-21T09:30:36.727Z,16.45
2023-03-21T09:33:08.857Z,18.48
2023-03-21T09:35:36.398Z,17.20
2023-03-21T09:38:04.276Z,18.17
2023-03-21T09:40:52.763Z,16.73
2023-03-21T09:43:56.910Z,16.92
2023-03-21T09:46:39.446Z,19.73
2023-03-21T09:49:13.111Z,17.73
2023-03-21T09:51:45.881Z,18.00
2023-03-21T09:54:25.964Z,18.17
2023-03-21T09:56:56.429Z,17.92
2023-03-21T09:59:38.341Z,17.95
2023-03-21T10:02:18.072Z,18.27
2023-03-21T10:04:46.572Z,17.90
2023-03-21T10:07:19.949Z,19.75
2023-03-21T10:09:52.074Z,19.13
2023-03-21T10:12:23.940Z,18.25
2023-03-21T10:14:56.469Z,19.25
2023-03-21T10:17:35.364Z,20.20
2023-03-21T10:20:19.625Z,18.85
2023-03-21T10:22:47.758Z,17.13
2023-03-21T10:25:22.288Z,15.68
2023-03-21T10:27:52.628Z,17.33
2023-03-21T10:30:40.942Z,16.83
2023-03-21T10:33:14.417Z,18.70
2023-03-21T10:35:49.002Z,20.35
2023-03-21T10:38:19.322Z,18.05
2023-03-21T10:40:46.764Z,18.08
2023-03-21T10:43:53.628Z,16.23
2023-03-21T10:46:21.705Z,16.83
2023-03-21T10:49:00.015Z,14.77
2023-03-21T10:51:38.092Z,16.92
2023-03-21T10:54:29.248Z,12.98
2023-03-21T10:56:59.361Z,15.75
2023-03-21T10:59:28.206Z,13.27
2023-03-21T11:01:57.121Z,13.52
2023-03-21T11:04:29.323Z,15.07
2023-03-21T11:07:02.211Z,15.73
2023-03-21T11:09:50.052Z,15.73
2023-03-21T11:12:39.344Z,16.17
2023-03-21T11:15:45.313Z,17.60
2023-03-21T11:18:26.215Z,17.63
2023-03-21T11:20:56.367Z,15.48
2023-03-21T11:23:29.414Z,14.73
2023-03-21T11:25:58.937Z,15.00
2023-03-21T11:28:42.412Z,13.65
2023-03-21T11:31:12.868Z,14.93
2023-03-21T11:34:05.447Z,15.20
2023-03-21T11:36:39.233Z,15.25
2023-03-21T11:39:09.429Z,14.80
2023-03-21T11:41:40.655Z,13.93
2023-03-21T11:44:34.134Z,13.35
2023-03-21T11:47:02.011Z,12.23
2023-03-21T11:49:29.430Z,11.68
2023-03-21T11:52:25.942Z,12.13
2023-03-21T11:55:04.295Z,12.88
2023-03-21T11:57:37.274Z,11.77
2023-03-21T12:00:23.886Z,12.55
2023-03-21T12:02:59.373Z,14.05
2023-03-21T12:05:40.778Z,14.32
2023-03-21T12:08:35.746Z,14.80
2023-03-21T12:11:37.451Z,15.10
2023-03-21T12:14:30.443Z,12.02
2023-03-21T12:17:19.229Z,12.30
2023-03-21T12:20:18.011Z,13.32
2023-03-21T12:23:23.204Z,13.35
2023-03-21T12:26:29.619Z,12.45
2023-03-21T12:29:10.094Z,12.45
2023-03-21T12:32:07.836Z,15.15
2023-03-21T12:34:53.394Z,15.55
2023-03-21T12:37:57.788Z,14.23
2023-03-21T12:40:52.770Z,15.27
2023-03-21T12:43:53.419Z,13.80
2023-03-21T12:46:44.822Z,11.75
2023-03-21T12:49:30.522Z,13.63
2023-03-21T12:52:07.034Z,14.15
2023-03-21T12:55:07.252Z,15.43
2023-03-21T12:57:51.084Z,17.67
2023-03-21T13:00:38.565Z,16.98
2023-03-21T13:03:14.079Z,15.70
2023-03-21T13:05:46.763Z,14.20
2023-03-21T13:08:50.398Z,15.10
2023-03-21T13:11:24.015Z,14.40
2023-03-21T13:14:18.886Z,14.13
2023-03-21T13:17:38.565Z,13.13
2023-03-21T13:20:22.272Z,12.63
2023-03-21T13:22:49.334Z,12.15
2023-03-21T13:25:25.096Z,11.75
2023-03-21T13:27:55.102Z,13.43
2023-03-21T13:30:27.118Z,14.18
2023-03-21T13:33:07.726Z,13.38
2023-03-21T13:35:38.580Z,14.00
2023-03-21T13:38:20.484Z,15.05
2023-03-21T13:41:01.361Z,14.40
2023-03-21T13:44:06.572Z,15.90
2023-03-21T13:46:53.310Z,12.75
2023-03-21T13:49:36.528Z,11.40
2023-03-21T13:52:09.739Z,12.07
2023-03-21T13:54:53.037Z,13.45
2023-03-21T14:00:33.375Z,12.60
2023-03-21T14:03:14.186Z,16.17
2023-03-21T14:05:41.899Z,17.27
2023-03-21T14:08:21.880Z,11.90
2023-03-21T14:10:59.798Z,10.88
2023-03-21T14:13:28.526Z,11.45
2023-03-21T14:16:15.573Z,12.05
2023-03-21T14:19:05.843Z,11.40
2023-03-21T14:21:35.093Z,12.10
2023-03-21T14:24:05.257Z,12.48
2023-03-21T14:26:40.354Z,13.10
2023-03-21T14:29:25.118Z,13.77
2023-03-21T14:31:53.674Z,13.02
2023-03-21T14:34:23.111Z,13.35
2023-03-21T14:36:57.558Z,13.23
2023-03-21T14:39:31.405Z,14.60
2023-03-21T14:42:07.366Z,14.25
2023-03-21T14:44:44.058Z,13.80
2023-03-21T14:47:30.072Z,14.07
2023-03-21T14:49:58.339Z,13.70
2023-03-21T14:52:33.231Z,15.07
2023-03-21T14:55:06.010Z,12.85
2023-03-21T14:57:33.847Z,13.32
2023-03-21T15:00:22.994Z,12.55
2023-03-21T15:02:51.344Z,12.18
2023-03-21T15:05:22.494Z,12.43
2023-03-21T15:08:12.684Z,12.05
2023-03-21T15:10:40.010Z,11.50
2023-03-21T15:13:22.571Z,12.45
2023-03-21T15:15:49.994Z,9.60
2023-03-21T15:18:28.387Z,11.32
2023-03-21T15:20:57.792Z,16.15
2023-03-21T15:23:35.926Z,12.18
2023-03-21T15:26:04.612Z,11.13
2023-03-21T15:28:36.413Z,11.52
2023-03-21T15:31:05.154Z,11.70
2023-03-21T15:33:32.225Z,11.50
2023-03-21T15:36:00.700Z,11.35
2023-03-21T15:38:37.432Z,12.82
2023-03-21T15:41:19.922Z,12.95
2023-03-21T15:44:01.946Z,13.25
2023-03-21T15:47:08.385Z,12.20
2023-03-21T15:49:41.779Z,12.60
2023-03-21T15:52:16.900Z,10.90
2023-03-21T15:54:48.106Z,12.02
2023-03-21T15:57:30.062Z,13.48
2023-03-21T16:00:18.533Z,12.95
2023-03-21T16:02:46.726Z,19.33
2023-03-21T16:05:29.017Z,19.48
2023-03-21T16:08:04.901Z,18.10
2023-03-21T16:10:41.959Z,14.70
2023-03-21T16:13:12.330Z,13.05
2023-03-21T16:15:39.680Z,13.25
2023-03-21T16:18:10.133Z,13.05
2023-03-21T16:20:45.057Z,14.07
2023-03-21T16:23:13.817Z,11.77
2023-03-21T16:25:44.257Z,12.73
2023-03-21T16:28:16.658Z,11.95
2023-03-21T16:30:44.447Z,14.05
2023-03-21T16:33:12.542Z,12.48
2023-03-21T16:35:40.540Z,11.65
2023-03-21T16:38:07.821Z,12.55
2023-03-21T16:40:38.186Z,13.35
2023-03-21T16:43:05.851Z,16.23
2023-03-21T16:45:33.016Z,14.75
2023-03-21T16:48:00.813Z,14.20
2023-03-21T16:50:35.855Z,13.45
2023-03-21T16:53:03.667Z,15.60
2023-03-21T16:55:35.119Z,13.90
2023-03-21T16:58:02.346Z,15.82
2023-03-21T17:00:30.912Z,20.25
2023-03-21T17:03:01.997Z,23.00
2023-03-21T17:05:32.976Z,18.05
2023-03-21T17:08:02.503Z,20.25
2023-03-21T17:10:31.696Z,27.52
2023-03-21T17:12:59.466Z,27.00
2023-03-21T17:15:26.534Z,30.50
2023-03-21T17:17:55.883Z,23.60
2023-03-21T17:20:31.706Z,21.60
2023-03-21T17:22:59.868Z,19.70
2023-03-21T17:25:27.288Z,20.35
2023-03-21T17:27:54.771Z,17.60
2023-03-21T17:30:27.988Z,17.95
2023-03-21T17:32:55.475Z,19.50
2023-03-21T17:35:23.715Z,19.42
2023-03-21T17:37:52.313Z,19.30
2023-03-21T17:40:23.368Z,16.55
2023-03-21T17:42:51.586Z,17.98
2023-03-21T17:45:19.428Z,21.00
2023-03-21T17:47:47.175Z,18.98
2023-03-21T17:50:20.708Z,40.08
2023-03-21T17:52:50.653Z,54.65
2023-03-21T17:55:21.093Z,61.40
2023-03-21T17:57:49.171Z,46.95
2023-03-21T18:00:22.677Z,31.08
2023-03-21T18:02:51.162Z,29.60
2023-03-21T18:05:19.309Z,29.67
2023-03-21T18:08:08.868Z,36.92
2023-03-21T18:10:34.534Z,34.40
2023-03-21T18:13:02.090Z,33.67
2023-03-21T18:15:30.464Z,38.50
2023-03-21T18:17:58.449Z,42.65
2023-03-21T18:20:50.444Z,44.88
2023-03-21T18:23:18.802Z,47.75
2023-03-21T18:25:45.935Z,59.58
2023-03-21T18:28:13.984Z,45.60
2023-03-21T18:31:09.501Z,43.83
2023-03-21T18:33:30.049Z,57.22
2023-03-21T18:35:59.024Z,62.50
2023-03-21T18:38:30.089Z,50.40
2023-03-21T18:40:57.212Z,41.63
2023-03-21T18:46:15.936Z,55.65
2023-03-21T18:48:43.262Z,52.08
2023-03-21T18:51:10.288Z,35.92
2023-03-21T18:53:38.121Z,34.42
2023-03-21T18:56:09.920Z,41.78
2023-03-21T18:58:52.808Z,53.75
2023-03-21T19:01:19.916Z,33.25
2023-03-21T19:04:14.456Z,20.13
2023-03-21T19:06:35.262Z,21.38
2023-03-21T19:09:03.486Z,22.33
2023-03-21T19:11:30.968Z,27.42
2023-03-21T19:13:58.645Z,22.83
2023-03-21T19:16:30.343Z,24.95
2023-03-21T19:19:02.913Z,25.13
2023-03-21T19:21:30.849Z,25.33
2023-03-21T19:24:25.046Z,24.10
2023-03-21T19:26:46.592Z,27.15
2023-03-21T19:29:15.671Z,26.17
2023-03-21T19:31:45.247Z,18.55
2023-03-21T19:34:16.445Z,20.75
2023-03-21T19:36:45.901Z,23.23
2023-03-21T19:39:22.228Z,30.67
2023-03-21T19:41:50.748Z,27.98
2023-03-21T19:44:19.224Z,30.77
2023-03-21T19:46:46.144Z,36.70
2023-03-21T19:49:13.387Z,30.08
2023-03-21T19:51:40.766Z,38.47
2023-03-21T19:54:08.083Z,23.58
2023-03-21T19:56:35.066Z,20.17
2023-03-21T19:59:03.324Z,17.58
2023-03-21T20:01:34.195Z,17.75
2023-03-21T20:04:02.144Z,20.50
2023-03-21T20:06:29.217Z,20.73
2023-03-21T20:11:43.368Z,18.35
2023-03-21T20:14:10.590Z,24.55
2023-03-21T20:16:37.540Z,30.35
2023-03-21T20:19:06.276Z,34.30
2023-03-21T20:21:43.429Z,38.22
2023-03-21T20:24:16.602Z,37.05
2023-03-21T20:26:45.205Z,39.33
2023-03-21T20:30:07.087Z,39.55
2023-03-21T20:32:00.175Z,38.10
2023-03-21T20:34:28.420Z,30.40
2023-03-21T20:36:55.924Z,29.23
2023-03-21T20:39:23.292Z,33.88
2023-03-21T20:41:50.180Z,36.03
2023-03-21T20:47:06.031Z,41.80
2023-03-21T20:49:33.681Z,40.72
2023-03-21T20:53:08.848Z,47.08
2023-03-21T20:54:47.729Z,46.97
2023-03-21T20:57:14.573Z,54.47
2023-03-21T20:59:43.900Z,41.60
2023-03-21T21:02:11.574Z,42.65
2023-03-21T21:04:52.889Z,36.25
2023-03-21T21:07:27.974Z,33.70
2023-03-21T21:09:55.147Z,30.98
2023-03-21T21:12:27.530Z,28.77
2023-03-21T21:14:55.620Z,33.38
2023-03-21T21:17:37.158Z,44.45
2023-03-21T21:20:18.213Z,38.35
2023-03-21T21:22:59.973Z,33.60
2023-03-21T21:25:29.240Z,30.67
2023-03-21T21:27:56.304Z,33.00
2023-03-21T21:30:23.898Z,35.03
2023-03-21T21:32:51.079Z,36.75
2023-03-21T21:35:19.643Z,36.00
2023-03-21T21:37:46.607Z,33.15
2023-03-21T21:40:15.905Z,38.78
2023-03-21T21:42:44.168Z,42.05
2023-03-21T21:45:12.973Z,51.47
2023-03-21T21:47:40.055Z,52.78
2023-03-21T21:50:08.089Z,45.13
2023-03-21T21:52:35.388Z,45.42
2023-03-21T21:55:04.185Z,45.85
2023-03-21T21:57:34.340Z,59.72
2023-03-21T22:00:22.762Z,58.33
2023-03-21T22:02:49.720Z,43.67
2023-03-21T22:05:18.983Z,48.70
2023-03-21T22:07:46.840Z,51.65
2023-03-21T22:10:14.523Z,55.63
2023-03-21T22:12:41.612Z,68.07
2023-03-21T22:15:10.860Z,64.95
2023-03-21T22:17:38.747Z,63.72
2023-03-21T22:20:08.919Z,65.30
2023-03-21T22:22:45.096Z,64.70
2023-03-21T22:25:15.000Z,76.95
2023-03-21T22:27:42.070Z,74.65
2023-03-21T22:30:13.869Z,75.05
2023-03-21T22:32:41.711Z,71.05
2023-03-21T22:35:09.800Z,68.13
2023-03-21T22:37:39.889Z,70.03
2023-03-21T22:40:27.044Z,60.47
2023-03-21T22:42:53.902Z,61.42
2023-03-21T22:45:21.105Z,71.25
2023-03-21T22:47:48.104Z,63.65
2023-03-21T22:50:15.529Z,59.03
2023-03-21T22:52:42.428Z,60.10
2023-03-21T22:55:12.637Z,58.00
2023-03-21T22:57:39.574Z,58.97
2023-03-21T23:00:14.457Z,59.50
2023-03-21T23:02:41.574Z,60.08
2023-03-21T23:05:18.029Z,55.25
2023-03-21T23:07:44.942Z,60.53
2023-03-21T23:10:12.433Z,58.03
2023-03-21T23:12:39.777Z,58.63
2023-03-21T23:15:08.349Z,57.38
2023-03-21T23:17:35.698Z,56.35
2023-03-21T23:20:07.103Z,57.85
2023-03-21T23:22:35.139Z,57.83
2023-03-21T23:25:03.060Z,64.32
2023-03-21T23:27:30.418Z,59.90
2023-03-21T23:29:57.762Z,63.08
2023-03-21T23:32:24.688Z,58.15
2023-03-21T23:34:54.139Z,58.33
2023-03-21T23:37:21.440Z,57.92
2023-03-21T23:39:56.730Z,59.30
2023-03-21T23:42:25.199Z,56.40
2023-03-21T23:44:52.360Z,54.97
2023-03-21T23:47:19.191Z,57.38
2023-03-21T23:49:49.261Z,60.13
2023-03-21T23:52:16.379Z,60.50
2023-03-21T23:54:43.466Z,58.10
2023-03-21T23:57:11.098Z,54.25
2023-03-21T23:59:38.179Z,58.85
